sensor_id;sensor_type;location;lat;lon;timestamp;P1;durP1;ratioP1;P2;durP2;ratioP2
52015;SDS011;38032;53.326;6.472;2022-12-29T00:01:16;6.15;;;4.20;;
52015;SDS011;38032;53.326;6.472;2022-12-29T00:03:45;5.28;;;4.78;;
52015;SDS011;38032;53.326;6.472;2022-12-29T00:06:11;5.43;;;4.65;;
52015;SDS011;38032;53.326;6.472;2022-12-29T00:08:37;9.13;;;5.15;;
52015;SDS011;38032;53.326;6.472;2022-12-29T00:11:09;5.53;;;5.03;;
52015;SDS011;38032;53.326;6.472;2022-12-29T00:13:37;7.00;;;5.05;;
52015;SDS011;38032;53.326;6.472;2022-12-29T00:16:22;4.93;;;4.43;;
52015;SDS011;38032;53.326;6.472;2022-12-29T00:18:49;5.70;;;3.88;;
52015;SDS011;38032;53.326;6.472;2022-12-29T00:21:16;4.97;;;4.20;;
52015;SDS011;38032;53.326;6.472;2022-12-29T00:24:02;5.50;;;4.35;;
52015;SDS011;38032;53.326;6.472;2022-12-29T00:26:47;5.03;;;3.90;;
52015;SDS011;38032;53.326;6.472;2022-12-29T00:29:41;4.22;;;3.80;;
52015;SDS011;38032;53.326;6.472;2022-12-29T00:32:25;4.45;;;3.95;;
52015;SDS011;38032;53.326;6.472;2022-12-29T00:35:10;6.32;;;4.00;;
52015;SDS011;38032;53.326;6.472;2022-12-29T00:37:40;5.75;;;3.85;;
52015;SDS011;38032;53.326;6.472;2022-12-29T00:40:27;4.03;;;3.17;;
52015;SDS011;38032;53.326;6.472;2022-12-29T00:43:11;4.10;;;3.60;;
52015;SDS011;38032;53.326;6.472;2022-12-29T00:45:55;6.43;;;3.78;;
52015;SDS011;38032;53.326;6.472;2022-12-29T00:48:21;3.75;;;3.35;;
52015;SDS011;38032;53.326;6.472;2022-12-29T00:51:06;5.07;;;3.70;;
52015;SDS011;38032;53.326;6.472;2022-12-29T00:53:33;4.93;;;4.00;;
52015;SDS011;38032;53.326;6.472;2022-12-29T00:55:59;5.35;;;4.15;;
52015;SDS011;38032;53.326;6.472;2022-12-29T00:58:27;5.28;;;4.20;;
52015;SDS011;38032;53.326;6.472;2022-12-29T01:01:04;4.28;;;3.80;;
52015;SDS011;38032;53.326;6.472;2022-12-29T01:03:31;4.95;;;3.60;;
52015;SDS011;38032;53.326;6.472;2022-12-29T01:06:02;4.47;;;3.53;;
52015;SDS011;38032;53.326;6.472;2022-12-29T01:08:28;7.35;;;4.38;;
52015;SDS011;38032;53.326;6.472;2022-12-29T01:11:02;5.65;;;3.50;;
52015;SDS011;38032;53.326;6.472;2022-12-29T01:13:30;4.05;;;3.65;;
52015;SDS011;38032;53.326;6.472;2022-12-29T01:15:56;4.25;;;3.80;;
52015;SDS011;38032;53.326;6.472;2022-12-29T01:18:23;5.45;;;4.10;;
52015;SDS011;38032;53.326;6.472;2022-12-29T01:20:49;5.18;;;4.68;;
52015;SDS011;38032;53.326;6.472;2022-12-29T01:23:15;5.80;;;3.88;;
52015;SDS011;38032;53.326;6.472;2022-12-29T01:25:42;4.47;;;4.05;;
52015;SDS011;38032;53.326;6.472;2022-12-29T01:28:08;4.63;;;3.92;;
52015;SDS011;38032;53.326;6.472;2022-12-29T01:30:34;4.50;;;3.60;;
52015;SDS011;38032;53.326;6.472;2022-12-29T01:33:00;4.82;;;4.28;;
52015;SDS011;38032;53.326;6.472;2022-12-29T01:35:26;4.85;;;4.03;;
52015;SDS011;38032;53.326;6.472;2022-12-29T01:37:52;4.43;;;3.80;;
52015;SDS011;38032;53.326;6.472;2022-12-29T01:40:18;5.18;;;4.10;;
52015;SDS011;38032;53.326;6.472;2022-12-29T01:42:44;5.97;;;4.15;;
52015;SDS011;38032;53.326;6.472;2022-12-29T01:45:11;5.40;;;4.18;;
52015;SDS011;38032;53.326;6.472;2022-12-29T01:47:40;4.63;;;3.88;;
52015;SDS011;38032;53.326;6.472;2022-12-29T01:50:19;5.70;;;4.22;;
52015;SDS011;38032;53.326;6.472;2022-12-29T01:52:51;5.47;;;4.55;;
52015;SDS011;38032;53.326;6.472;2022-12-29T01:55:22;6.07;;;4.30;;
52015;SDS011;38032;53.326;6.472;2022-12-29T01:57:50;6.85;;;3.92;;
52015;SDS011;38032;53.326;6.472;2022-12-29T02:00:18;5.93;;;3.92;;
52015;SDS011;38032;53.326;6.472;2022-12-29T02:02:45;4.35;;;3.80;;
52015;SDS011;38032;53.326;6.472;2022-12-29T02:05:18;4.55;;;4.03;;
52015;SDS011;38032;53.326;6.472;2022-12-29T02:07:54;5.82;;;4.75;;
52015;SDS011;38032;53.326;6.472;2022-12-29T02:10:20;4.68;;;3.97;;
52015;SDS011;38032;53.326;6.472;2022-12-29T02:12:49;5.32;;;3.97;;
52015;SDS011;38032;53.326;6.472;2022-12-29T02:15:16;5.28;;;4.47;;
52015;SDS011;38032;53.326;6.472;2022-12-29T02:18:04;5.90;;;4.65;;
52015;SDS011;38032;53.326;6.472;2022-12-29T02:21:02;5.95;;;4.43;;
52015;SDS011;38032;53.326;6.472;2022-12-29T02:26:15;5.57;;;4.75;;
52015;SDS011;38032;53.326;6.472;2022-12-29T02:37:40;4.93;;;4.13;;
52015;SDS011;38032;53.326;6.472;2022-12-29T02:40:16;4.72;;;4.13;;
52015;SDS011;38032;53.326;6.472;2022-12-29T02:42:46;4.07;;;2.92;;
52015;SDS011;38032;53.326;6.472;2022-12-29T02:45:31;4.40;;;2.92;;
52015;SDS011;38032;53.326;6.472;2022-12-29T02:48:07;5.13;;;3.78;;
52015;SDS011;38032;53.326;6.472;2022-12-29T02:53:30;5.13;;;3.95;;
52015;SDS011;38032;53.326;6.472;2022-12-29T02:56:17;5.82;;;4.35;;
52015;SDS011;38032;53.326;6.472;2022-12-29T02:58:42;6.03;;;4.75;;
52015;SDS011;38032;53.326;6.472;2022-12-29T03:01:14;4.78;;;4.05;;
52015;SDS011;38032;53.326;6.472;2022-12-29T03:04:15;5.85;;;4.25;;
52015;SDS011;38032;53.326;6.472;2022-12-29T03:07:09;4.60;;;3.78;;
52015;SDS011;38032;53.326;6.472;2022-12-29T03:10:00;6.07;;;3.72;;
52015;SDS011;38032;53.326;6.472;2022-12-29T03:12:31;5.85;;;4.40;;
52015;SDS011;38032;53.326;6.472;2022-12-29T03:15:33;5.30;;;3.60;;
52015;SDS011;38032;53.326;6.472;2022-12-29T03:18:27;4.03;;;2.70;;
52015;SDS011;38032;53.326;6.472;2022-12-29T03:21:20;4.25;;;2.78;;
52015;SDS011;38032;53.326;6.472;2022-12-29T03:24:17;3.08;;;2.50;;
52015;SDS011;38032;53.326;6.472;2022-12-29T03:26:47;2.83;;;2.20;;
52015;SDS011;38032;53.326;6.472;2022-12-29T03:29:16;3.15;;;2.35;;
52015;SDS011;38032;53.326;6.472;2022-12-29T03:31:43;3.13;;;2.40;;
52015;SDS011;38032;53.326;6.472;2022-12-29T03:34:10;3.95;;;2.40;;
52015;SDS011;38032;53.326;6.472;2022-12-29T03:36:42;4.55;;;2.33;;
52015;SDS011;38032;53.326;6.472;2022-12-29T03:39:14;5.20;;;2.28;;
52015;SDS011;38032;53.326;6.472;2022-12-29T03:41:40;5.13;;;1.80;;
52015;SDS011;38032;53.326;6.472;2022-12-29T03:44:10;4.97;;;1.95;;
52015;SDS011;38032;53.326;6.472;2022-12-29T03:46:37;5.05;;;2.20;;
52015;SDS011;38032;53.326;6.472;2022-12-29T03:49:03;5.75;;;2.10;;
52015;SDS011;38032;53.326;6.472;2022-12-29T03:51:29;4.18;;;2.10;;
52015;SDS011;38032;53.326;6.472;2022-12-29T03:53:55;3.13;;;1.90;;
52015;SDS011;38032;53.326;6.472;2022-12-29T03:56:21;4.75;;;2.00;;
52015;SDS011;38032;53.326;6.472;2022-12-29T03:58:47;5.05;;;1.90;;
52015;SDS011;38032;53.326;6.472;2022-12-29T04:01:12;4.57;;;1.90;;
52015;SDS011;38032;53.326;6.472;2022-12-29T04:03:38;4.40;;;2.15;;
52015;SDS011;38032;53.326;6.472;2022-12-29T04:06:04;4.25;;;2.25;;
52015;SDS011;38032;53.326;6.472;2022-12-29T04:08:30;5.15;;;2.25;;
52015;SDS011;38032;53.326;6.472;2022-12-29T04:10:56;5.20;;;2.03;;
52015;SDS011;38032;53.326;6.472;2022-12-29T04:13:22;3.83;;;2.15;;
52015;SDS011;38032;53.326;6.472;2022-12-29T04:15:48;3.65;;;2.00;;
52015;SDS011;38032;53.326;6.472;2022-12-29T04:18:14;4.57;;;2.10;;
52015;SDS011;38032;53.326;6.472;2022-12-29T04:20:41;5.13;;;2.45;;
52015;SDS011;38032;53.326;6.472;2022-12-29T04:23:26;6.95;;;2.30;;
52015;SDS011;38032;53.326;6.472;2022-12-29T04:25:52;5.50;;;2.20;;
52015;SDS011;38032;53.326;6.472;2022-12-29T04:28:18;5.20;;;2.40;;
52015;SDS011;38032;53.326;6.472;2022-12-29T04:30:44;4.82;;;2.00;;
52015;SDS011;38032;53.326;6.472;2022-12-29T04:33:11;4.25;;;2.30;;
52015;SDS011;38032;53.326;6.472;2022-12-29T04:35:37;3.63;;;2.20;;
52015;SDS011;38032;53.326;6.472;2022-12-29T04:38:03;3.80;;;1.92;;
52015;SDS011;38032;53.326;6.472;2022-12-29T04:40:29;5.85;;;2.00;;
52015;SDS011;38032;53.326;6.472;2022-12-29T04:42:55;3.63;;;1.90;;
52015;SDS011;38032;53.326;6.472;2022-12-29T04:45:21;5.50;;;2.30;;
52015;SDS011;38032;53.326;6.472;2022-12-29T04:47:47;5.35;;;1.88;;
52015;SDS011;38032;53.326;6.472;2022-12-29T04:50:12;5.53;;;2.20;;
52015;SDS011;38032;53.326;6.472;2022-12-29T04:52:38;5.60;;;1.90;;
52015;SDS011;38032;53.326;6.472;2022-12-29T04:55:05;7.45;;;2.80;;
52015;SDS011;38032;53.326;6.472;2022-12-29T04:57:31;5.75;;;2.00;;
52015;SDS011;38032;53.326;6.472;2022-12-29T04:59:57;5.65;;;2.00;;
52015;SDS011;38032;53.326;6.472;2022-12-29T05:02:23;8.30;;;2.28;;
52015;SDS011;38032;53.326;6.472;2022-12-29T05:04:49;6.43;;;2.10;;
52015;SDS011;38032;53.326;6.472;2022-12-29T05:07:15;5.22;;;2.00;;
52015;SDS011;38032;53.326;6.472;2022-12-29T05:09:41;6.88;;;2.20;;
52015;SDS011;38032;53.326;6.472;2022-12-29T05:12:07;8.18;;;1.80;;
52015;SDS011;38032;53.326;6.472;2022-12-29T05:14:32;6.43;;;2.15;;
52015;SDS011;38032;53.326;6.472;2022-12-29T05:16:58;6.55;;;1.92;;
52015;SDS011;38032;53.326;6.472;2022-12-29T05:19:24;5.35;;;2.30;;
52015;SDS011;38032;53.326;6.472;2022-12-29T05:21:50;6.47;;;1.95;;
52015;SDS011;38032;53.326;6.472;2022-12-29T05:24:16;7.75;;;2.47;;
52015;SDS011;38032;53.326;6.472;2022-12-29T05:26:42;5.28;;;2.40;;
52015;SDS011;38032;53.326;6.472;2022-12-29T05:29:08;8.77;;;2.60;;
52015;SDS011;38032;53.326;6.472;2022-12-29T05:31:34;7.68;;;2.30;;
52015;SDS011;38032;53.326;6.472;2022-12-29T05:34:00;7.70;;;2.38;;
52015;SDS011;38032;53.326;6.472;2022-12-29T05:36:27;7.78;;;2.60;;
52015;SDS011;38032;53.326;6.472;2022-12-29T05:38:52;7.55;;;2.30;;
52015;SDS011;38032;53.326;6.472;2022-12-29T05:41:18;8.23;;;2.40;;
52015;SDS011;38032;53.326;6.472;2022-12-29T05:43:44;9.73;;;2.70;;
52015;SDS011;38032;53.326;6.472;2022-12-29T05:46:10;7.38;;;2.50;;
52015;SDS011;38032;53.326;6.472;2022-12-29T05:48:36;8.57;;;2.22;;
52015;SDS011;38032;53.326;6.472;2022-12-29T05:51:02;10.18;;;2.97;;
52015;SDS011;38032;53.326;6.472;2022-12-29T05:53:28;4.90;;;1.85;;
52015;SDS011;38032;53.326;6.472;2022-12-29T05:55:54;8.68;;;2.33;;
52015;SDS011;38032;53.326;6.472;2022-12-29T05:58:20;6.82;;;2.33;;
52015;SDS011;38032;53.326;6.472;2022-12-29T06:00:46;7.78;;;2.67;;
52015;SDS011;38032;53.326;6.472;2022-12-29T06:03:12;11.35;;;2.28;;
52015;SDS011;38032;53.326;6.472;2022-12-29T06:05:38;8.35;;;2.83;;
52015;SDS011;38032;53.326;6.472;2022-12-29T06:08:03;9.00;;;2.47;;
52015;SDS011;38032;53.326;6.472;2022-12-29T06:10:30;6.70;;;2.22;;
52015;SDS011;38032;53.326;6.472;2022-12-29T06:12:55;8.70;;;2.85;;
52015;SDS011;38032;53.326;6.472;2022-12-29T06:15:21;10.75;;;2.72;;
52015;SDS011;38032;53.326;6.472;2022-12-29T06:17:47;7.47;;;2.28;;
52015;SDS011;38032;53.326;6.472;2022-12-29T06:20:13;10.32;;;2.60;;
52015;SDS011;38032;53.326;6.472;2022-12-29T06:22:39;10.68;;;2.47;;
52015;SDS011;38032;53.326;6.472;2022-12-29T06:25:05;9.75;;;2.50;;
52015;SDS011;38032;53.326;6.472;2022-12-29T06:27:32;7.70;;;2.33;;
52015;SDS011;38032;53.326;6.472;2022-12-29T06:29:58;10.75;;;2.80;;
52015;SDS011;38032;53.326;6.472;2022-12-29T06:32:23;9.30;;;2.90;;
52015;SDS011;38032;53.326;6.472;2022-12-29T06:34:49;14.02;;;2.53;;
52015;SDS011;38032;53.326;6.472;2022-12-29T06:37:15;7.53;;;2.13;;
52015;SDS011;38032;53.326;6.472;2022-12-29T06:39:41;7.18;;;2.60;;
52015;SDS011;38032;53.326;6.472;2022-12-29T06:42:08;8.10;;;3.15;;
52015;SDS011;38032;53.326;6.472;2022-12-29T06:44:34;10.85;;;2.78;;
52015;SDS011;38032;53.326;6.472;2022-12-29T06:47:00;11.23;;;2.90;;
52015;SDS011;38032;53.326;6.472;2022-12-29T06:49:26;10.73;;;2.78;;
52015;SDS011;38032;53.326;6.472;2022-12-29T06:51:52;13.52;;;3.40;;
52015;SDS011;38032;53.326;6.472;2022-12-29T06:54:18;11.05;;;3.22;;
52015;SDS011;38032;53.326;6.472;2022-12-29T06:56:44;12.32;;;3.10;;
52015;SDS011;38032;53.326;6.472;2022-12-29T06:59:10;9.43;;;2.55;;
52015;SDS011;38032;53.326;6.472;2022-12-29T07:01:36;16.25;;;3.25;;
52015;SDS011;38032;53.326;6.472;2022-12-29T07:04:02;13.85;;;3.15;;
52015;SDS011;38032;53.326;6.472;2022-12-29T07:06:28;12.85;;;3.55;;
52015;SDS011;38032;53.326;6.472;2022-12-29T07:08:54;12.35;;;2.75;;
52015;SDS011;38032;53.326;6.472;2022-12-29T07:11:22;11.60;;;2.60;;
52015;SDS011;38032;53.326;6.472;2022-12-29T07:13:48;14.38;;;2.83;;
52015;SDS011;38032;53.326;6.472;2022-12-29T07:16:14;15.73;;;3.63;;
52015;SDS011;38032;53.326;6.472;2022-12-29T07:18:40;12.68;;;3.35;;
52015;SDS011;38032;53.326;6.472;2022-12-29T07:21:06;17.88;;;3.33;;
52015;SDS011;38032;53.326;6.472;2022-12-29T07:23:32;9.40;;;2.80;;
52015;SDS011;38032;53.326;6.472;2022-12-29T07:25:59;14.70;;;2.90;;
52015;SDS011;38032;53.326;6.472;2022-12-29T07:28:26;12.25;;;3.53;;
52015;SDS011;38032;53.326;6.472;2022-12-29T07:30:52;12.25;;;3.20;;
52015;SDS011;38032;53.326;6.472;2022-12-29T07:33:17;9.68;;;2.88;;
52015;SDS011;38032;53.326;6.472;2022-12-29T07:35:45;13.68;;;3.47;;
52015;SDS011;38032;53.326;6.472;2022-12-29T07:38:11;9.80;;;2.80;;
52015;SDS011;38032;53.326;6.472;2022-12-29T07:40:37;14.65;;;2.88;;
52015;SDS011;38032;53.326;6.472;2022-12-29T07:43:03;8.05;;;2.75;;
52015;SDS011;38032;53.326;6.472;2022-12-29T07:45:29;14.18;;;3.17;;
52015;SDS011;38032;53.326;6.472;2022-12-29T07:47:55;13.50;;;2.83;;
52015;SDS011;38032;53.326;6.472;2022-12-29T07:50:21;14.32;;;2.97;;
52015;SDS011;38032;53.326;6.472;2022-12-29T07:52:47;16.00;;;3.20;;
52015;SDS011;38032;53.326;6.472;2022-12-29T07:55:13;10.68;;;2.70;;
52015;SDS011;38032;53.326;6.472;2022-12-29T07:57:40;13.43;;;2.90;;
52015;SDS011;38032;53.326;6.472;2022-12-29T08:00:06;15.40;;;3.00;;
52015;SDS011;38032;53.326;6.472;2022-12-29T08:02:33;9.13;;;2.50;;
52015;SDS011;38032;53.326;6.472;2022-12-29T08:04:58;14.40;;;3.10;;
52015;SDS011;38032;53.326;6.472;2022-12-29T08:07:24;12.02;;;3.17;;
52015;SDS011;38032;53.326;6.472;2022-12-29T08:09:50;11.70;;;2.70;;
52015;SDS011;38032;53.326;6.472;2022-12-29T08:12:16;11.10;;;2.97;;
52015;SDS011;38032;53.326;6.472;2022-12-29T08:14:42;11.43;;;3.30;;
52015;SDS011;38032;53.326;6.472;2022-12-29T08:17:08;11.43;;;3.33;;
52015;SDS011;38032;53.326;6.472;2022-12-29T08:19:35;10.30;;;3.08;;
52015;SDS011;38032;53.326;6.472;2022-12-29T08:22:01;11.35;;;3.10;;
52015;SDS011;38032;53.326;6.472;2022-12-29T08:24:27;12.88;;;3.53;;
52015;SDS011;38032;53.326;6.472;2022-12-29T08:26:53;12.88;;;3.22;;
52015;SDS011;38032;53.326;6.472;2022-12-29T08:29:19;13.43;;;3.17;;
52015;SDS011;38032;53.326;6.472;2022-12-29T08:31:46;14.35;;;2.97;;
52015;SDS011;38032;53.326;6.472;2022-12-29T08:34:13;12.52;;;3.38;;
52015;SDS011;38032;53.326;6.472;2022-12-29T08:36:38;11.18;;;3.03;;
52015;SDS011;38032;53.326;6.472;2022-12-29T08:39:04;12.27;;;3.08;;
52015;SDS011;38032;53.326;6.472;2022-12-29T08:41:30;13.18;;;3.22;;
52015;SDS011;38032;53.326;6.472;2022-12-29T08:43:56;13.82;;;3.28;;
52015;SDS011;38032;53.326;6.472;2022-12-29T08:46:22;15.18;;;3.17;;
52015;SDS011;38032;53.326;6.472;2022-12-29T08:48:48;15.85;;;3.65;;
52015;SDS011;38032;53.326;6.472;2022-12-29T08:51:14;20.77;;;3.90;;
52015;SDS011;38032;53.326;6.472;2022-12-29T08:53:40;9.95;;;2.78;;
52015;SDS011;38032;53.326;6.472;2022-12-29T08:56:06;11.93;;;3.30;;
52015;SDS011;38032;53.326;6.472;2022-12-29T08:58:34;11.52;;;3.33;;
52015;SDS011;38032;53.326;6.472;2022-12-29T09:01:00;14.98;;;3.28;;
52015;SDS011;38032;53.326;6.472;2022-12-29T09:03:26;14.93;;;3.35;;
52015;SDS011;38032;53.326;6.472;2022-12-29T09:05:54;13.60;;;3.22;;
52015;SDS011;38032;53.326;6.472;2022-12-29T09:08:21;17.83;;;3.60;;
52015;SDS011;38032;53.326;6.472;2022-12-29T09:10:48;15.10;;;3.00;;
52015;SDS011;38032;53.326;6.472;2022-12-29T09:13:15;12.90;;;3.38;;
52015;SDS011;38032;53.326;6.472;2022-12-29T09:15:41;11.00;;;3.63;;
52015;SDS011;38032;53.326;6.472;2022-12-29T09:18:08;16.23;;;3.55;;
52015;SDS011;38032;53.326;6.472;2022-12-29T09:20:35;15.82;;;3.67;;
52015;SDS011;38032;53.326;6.472;2022-12-29T09:23:02;12.45;;;3.53;;
52015;SDS011;38032;53.326;6.472;2022-12-29T09:25:31;13.23;;;3.53;;
52015;SDS011;38032;53.326;6.472;2022-12-29T09:27:57;16.13;;;3.70;;
52015;SDS011;38032;53.326;6.472;2022-12-29T09:30:23;12.15;;;3.05;;
52015;SDS011;38032;53.326;6.472;2022-12-29T09:32:50;8.65;;;3.38;;
52015;SDS011;38032;53.326;6.472;2022-12-29T09:35:16;14.90;;;3.97;;
52015;SDS011;38032;53.326;6.472;2022-12-29T09:37:42;14.63;;;4.22;;
52015;SDS011;38032;53.326;6.472;2022-12-29T09:40:17;14.60;;;3.50;;
52015;SDS011;38032;53.326;6.472;2022-12-29T09:42:55;10.95;;;3.00;;
52015;SDS011;38032;53.326;6.472;2022-12-29T09:45:35;15.95;;;3.20;;
52015;SDS011;38032;53.326;6.472;2022-12-29T09:50:38;11.30;;;3.72;;
52015;SDS011;38032;53.326;6.472;2022-12-29T09:53:11;14.93;;;3.30;;
52015;SDS011;38032;53.326;6.472;2022-12-29T09:55:48;14.52;;;3.85;;
52015;SDS011;38032;53.326;6.472;2022-12-29T09:58:19;14.10;;;3.40;;
52015;SDS011;38032;53.326;6.472;2022-12-29T10:01:03;10.32;;;3.03;;
52015;SDS011;38032;53.326;6.472;2022-12-29T10:03:45;8.82;;;2.65;;
52015;SDS011;38032;53.326;6.472;2022-12-29T10:06:17;9.07;;;2.92;;
52015;SDS011;38032;53.326;6.472;2022-12-29T10:09:01;12.02;;;2.92;;
52015;SDS011;38032;53.326;6.472;2022-12-29T10:11:40;10.25;;;2.75;;
52015;SDS011;38032;53.326;6.472;2022-12-29T10:14:29;11.90;;;2.80;;
52015;SDS011;38032;53.326;6.472;2022-12-29T10:17:21;10.70;;;2.75;;
52015;SDS011;38032;53.326;6.472;2022-12-29T10:20:00;10.40;;;2.78;;
52015;SDS011;38032;53.326;6.472;2022-12-29T10:23:06;9.13;;;2.38;;
52015;SDS011;38032;53.326;6.472;2022-12-29T10:25:50;7.82;;;2.70;;
52015;SDS011;38032;53.326;6.472;2022-12-29T10:28:21;10.73;;;3.00;;
52015;SDS011;38032;53.326;6.472;2022-12-29T10:30:51;8.48;;;2.47;;
52015;SDS011;38032;53.326;6.472;2022-12-29T10:33:19;7.82;;;2.78;;
52015;SDS011;38032;53.326;6.472;2022-12-29T10:35:49;7.97;;;2.53;;
52015;SDS011;38032;53.326;6.472;2022-12-29T10:45:54;13.60;;;4.03;;
52015;SDS011;38032;53.326;6.472;2022-12-29T10:48:27;11.55;;;3.08;;
52015;SDS011;38032;53.326;6.472;2022-12-29T10:50:57;9.25;;;3.20;;
52015;SDS011;38032;53.326;6.472;2022-12-29T10:53:27;14.38;;;3.60;;
52015;SDS011;38032;53.326;6.472;2022-12-29T10:56:00;12.25;;;3.50;;
52015;SDS011;38032;53.326;6.472;2022-12-29T10:58:28;15.02;;;3.30;;
52015;SDS011;38032;53.326;6.472;2022-12-29T11:00:57;12.05;;;3.22;;
52015;SDS011;38032;53.326;6.472;2022-12-29T11:03:33;13.70;;;3.33;;
52015;SDS011;38032;53.326;6.472;2022-12-29T11:06:03;16.48;;;4.60;;
52015;SDS011;38032;53.326;6.472;2022-12-29T11:08:51;19.27;;;4.47;;
52015;SDS011;38032;53.326;6.472;2022-12-29T11:11:22;12.02;;;3.03;;
52015;SDS011;38032;53.326;6.472;2022-12-29T11:13:55;14.50;;;3.95;;
52015;SDS011;38032;53.326;6.472;2022-12-29T11:16:27;13.95;;;4.05;;
52015;SDS011;38032;53.326;6.472;2022-12-29T11:18:56;16.15;;;3.33;;
52015;SDS011;38032;53.326;6.472;2022-12-29T11:21:32;16.55;;;3.30;;
52015;SDS011;38032;53.326;6.472;2022-12-29T11:24:08;16.70;;;3.97;;
52015;SDS011;38032;53.326;6.472;2022-12-29T11:26:51;16.40;;;4.03;;
52015;SDS011;38032;53.326;6.472;2022-12-29T11:29:23;20.65;;;4.20;;
52015;SDS011;38032;53.326;6.472;2022-12-29T11:31:53;12.27;;;3.35;;
52015;SDS011;38032;53.326;6.472;2022-12-29T11:34:24;18.60;;;3.88;;
52015;SDS011;38032;53.326;6.472;2022-12-29T11:37:00;15.73;;;4.15;;
52015;SDS011;38032;53.326;6.472;2022-12-29T11:39:31;15.32;;;3.58;;
52015;SDS011;38032;53.326;6.472;2022-12-29T11:42:02;16.95;;;3.88;;
52015;SDS011;38032;53.326;6.472;2022-12-29T11:44:30;13.13;;;3.45;;
52015;SDS011;38032;53.326;6.472;2022-12-29T11:47:02;12.00;;;3.40;;
52015;SDS011;38032;53.326;6.472;2022-12-29T11:49:30;17.50;;;4.00;;
52015;SDS011;38032;53.326;6.472;2022-12-29T11:51:56;18.13;;;4.20;;
52015;SDS011;38032;53.326;6.472;2022-12-29T11:54:24;13.38;;;3.33;;
52015;SDS011;38032;53.326;6.472;2022-12-29T11:56:55;16.73;;;3.83;;
52015;SDS011;38032;53.326;6.472;2022-12-29T12:02:00;14.57;;;4.05;;
52015;SDS011;38032;53.326;6.472;2022-12-29T12:04:36;16.55;;;3.80;;
52015;SDS011;38032;53.326;6.472;2022-12-29T12:07:08;14.30;;;3.67;;
52015;SDS011;38032;53.326;6.472;2022-12-29T12:09:45;18.23;;;3.88;;
52015;SDS011;38032;53.326;6.472;2022-12-29T12:12:28;11.10;;;3.30;;
52015;SDS011;38032;53.326;6.472;2022-12-29T12:14:56;10.48;;;3.22;;
52015;SDS011;38032;53.326;6.472;2022-12-29T12:17:30;12.25;;;3.05;;
52015;SDS011;38032;53.326;6.472;2022-12-29T12:22:51;10.77;;;3.17;;
52015;SDS011;38032;53.326;6.472;2022-12-29T12:25:37;10.18;;;2.95;;
52015;SDS011;38032;53.326;6.472;2022-12-29T12:28:39;14.10;;;3.65;;
52015;SDS011;38032;53.326;6.472;2022-12-29T12:31:15;10.07;;;3.25;;
52015;SDS011;38032;53.326;6.472;2022-12-29T12:33:48;10.43;;;3.17;;
52015;SDS011;38032;53.326;6.472;2022-12-29T12:36:22;13.93;;;3.47;;
52015;SDS011;38032;53.326;6.472;2022-12-29T12:44:10;10.93;;;2.78;;
52015;SDS011;38032;53.326;6.472;2022-12-29T12:52:30;10.88;;;3.28;;
52015;SDS011;38032;53.326;6.472;2022-12-29T12:58:02;11.90;;;2.42;;
52015;SDS011;38032;53.326;6.472;2022-12-29T13:00:33;11.23;;;2.80;;
52015;SDS011;38032;53.326;6.472;2022-12-29T13:03:10;9.57;;;2.40;;
52015;SDS011;38032;53.326;6.472;2022-12-29T13:06:06;12.73;;;2.30;;
52015;SDS011;38032;53.326;6.472;2022-12-29T13:09:12;7.97;;;2.42;;
52015;SDS011;38032;53.326;6.472;2022-12-29T13:11:55;11.02;;;2.40;;
52015;SDS011;38032;53.326;6.472;2022-12-29T13:22:30;7.53;;;2.80;;
52015;SDS011;38032;53.326;6.472;2022-12-29T13:27:54;12.10;;;2.50;;
52015;SDS011;38032;53.326;6.472;2022-12-29T13:30:32;9.05;;;2.40;;
52015;SDS011;38032;53.326;6.472;2022-12-29T13:40:45;7.53;;;2.58;;
52015;SDS011;38032;53.326;6.472;2022-12-29T13:43:20;9.10;;;2.50;;
52015;SDS011;38032;53.326;6.472;2022-12-29T13:45:50;10.00;;;2.42;;
52015;SDS011;38032;53.326;6.472;2022-12-29T13:48:29;7.88;;;2.33;;
52015;SDS011;38032;53.326;6.472;2022-12-29T13:51:02;8.70;;;2.15;;
52015;SDS011;38032;53.326;6.472;2022-12-29T13:53:37;12.43;;;2.25;;
52015;SDS011;38032;53.326;6.472;2022-12-29T13:56:15;12.90;;;2.30;;
52015;SDS011;38032;53.326;6.472;2022-12-29T13:58:53;6.53;;;2.35;;
52015;SDS011;38032;53.326;6.472;2022-12-29T14:01:40;7.82;;;2.42;;
52015;SDS011;38032;53.326;6.472;2022-12-29T14:04:14;8.40;;;2.45;;
52015;SDS011;38032;53.326;6.472;2022-12-29T14:09:40;11.30;;;2.65;;
52015;SDS011;38032;53.326;6.472;2022-12-29T14:12:19;7.53;;;2.22;;
52015;SDS011;38032;53.326;6.472;2022-12-29T14:15:06;9.68;;;2.45;;
52015;SDS011;38032;53.326;6.472;2022-12-29T14:17:44;10.50;;;2.20;;
52015;SDS011;38032;53.326;6.472;2022-12-29T14:20:24;7.88;;;2.35;;
52015;SDS011;38032;53.326;6.472;2022-12-29T14:22:58;11.82;;;2.47;;
52015;SDS011;38032;53.326;6.472;2022-12-29T14:28:24;11.45;;;2.63;;
52015;SDS011;38032;53.326;6.472;2022-12-29T14:31:01;11.25;;;2.50;;
52015;SDS011;38032;53.326;6.472;2022-12-29T14:33:30;10.77;;;2.70;;
52015;SDS011;38032;53.326;6.472;2022-12-29T14:38:46;7.05;;;2.30;;
52015;SDS011;38032;53.326;6.472;2022-12-29T14:41:17;10.68;;;2.90;;
52015;SDS011;38032;53.326;6.472;2022-12-29T14:43:51;9.32;;;2.55;;
52015;SDS011;38032;53.326;6.472;2022-12-29T14:46:20;9.77;;;2.75;;
52015;SDS011;38032;53.326;6.472;2022-12-29T14:48:47;10.55;;;3.08;;
52015;SDS011;38032;53.326;6.472;2022-12-29T14:51:21;9.23;;;2.50;;
52015;SDS011;38032;53.326;6.472;2022-12-29T14:53:55;10.02;;;2.70;;
52015;SDS011;38032;53.326;6.472;2022-12-29T14:56:26;7.90;;;2.42;;
52015;SDS011;38032;53.326;6.472;2022-12-29T14:58:57;9.25;;;2.35;;
52015;SDS011;38032;53.326;6.472;2022-12-29T15:04:19;9.52;;;2.67;;
52015;SDS011;38032;53.326;6.472;2022-12-29T15:06:48;7.10;;;2.40;;
52015;SDS011;38032;53.326;6.472;2022-12-29T15:09:19;10.43;;;2.88;;
52015;SDS011;38032;53.326;6.472;2022-12-29T15:12:01;9.98;;;2.42;;
52015;SDS011;38032;53.326;6.472;2022-12-29T15:14:49;12.70;;;3.15;;
52015;SDS011;38032;53.326;6.472;2022-12-29T15:19:52;8.82;;;2.47;;
52015;SDS011;38032;53.326;6.472;2022-12-29T15:22:18;9.00;;;2.97;;
52015;SDS011;38032;53.326;6.472;2022-12-29T15:24:44;9.43;;;2.65;;
52015;SDS011;38032;53.326;6.472;2022-12-29T15:27:13;13.80;;;2.80;;
52015;SDS011;38032;53.326;6.472;2022-12-29T15:29:41;10.27;;;2.72;;
52015;SDS011;38032;53.326;6.472;2022-12-29T15:32:16;10.35;;;2.72;;
52015;SDS011;38032;53.326;6.472;2022-12-29T15:34:45;7.35;;;2.92;;
52015;SDS011;38032;53.326;6.472;2022-12-29T15:37:19;10.50;;;3.10;;
52015;SDS011;38032;53.326;6.472;2022-12-29T15:39:47;13.63;;;2.97;;
52015;SDS011;38032;53.326;6.472;2022-12-29T15:42:26;7.88;;;2.78;;
52015;SDS011;38032;53.326;6.472;2022-12-29T15:45:04;10.57;;;3.20;;
52015;SDS011;38032;53.326;6.472;2022-12-29T15:47:32;10.65;;;2.60;;
52015;SDS011;38032;53.326;6.472;2022-12-29T15:50:02;10.45;;;2.50;;
52015;SDS011;38032;53.326;6.472;2022-12-29T15:52:32;9.23;;;3.13;;
52015;SDS011;38032;53.326;6.472;2022-12-29T15:54:59;12.15;;;2.83;;
52015;SDS011;38032;53.326;6.472;2022-12-29T15:57:30;12.93;;;3.45;;
52015;SDS011;38032;53.326;6.472;2022-12-29T16:02:51;7.95;;;2.60;;
52015;SDS011;38032;53.326;6.472;2022-12-29T16:05:19;6.90;;;2.60;;
52015;SDS011;38032;53.326;6.472;2022-12-29T16:07:52;9.35;;;2.40;;
52015;SDS011;38032;53.326;6.472;2022-12-29T16:10:26;14.27;;;2.60;;
52015;SDS011;38032;53.326;6.472;2022-12-29T16:13:00;10.57;;;2.45;;
52015;SDS011;38032;53.326;6.472;2022-12-29T16:15:29;13.43;;;3.38;;
52015;SDS011;38032;53.326;6.472;2022-12-29T16:17:55;8.65;;;2.90;;
52015;SDS011;38032;53.326;6.472;2022-12-29T16:20:22;9.07;;;3.03;;
52015;SDS011;38032;53.326;6.472;2022-12-29T16:22:57;8.55;;;2.88;;